Idre Storbo, Sweden

10:22 AM CEST on July 26, 2016 (GMT +0200)
Tjonnodden, 2446 Elga, Engedal, Norway | | Change Station

Elev 2218 ft 62.16 °N, 11.90 °E | Updated 10 seconds ago

Rain Showers
Showers Rain
56.3 °F
Feels Like 56.3 °F
N
0.0
Wind Variable Wind from SSE
Gusts 0.0 mph

Today
High -- | Low -- °F
--% Chance of Precip.
Yesterday
High -- | Low -- °F
Precip. -- in
Pressure 29.89 in
Visibility 4.3 miles
Clouds Mostly Cloudy 2900 ft
Dew Point 55 °F
Humidity 97%
Rainfall 0.09 in
Snow Depth Not available.
4:22 AM 10:09 PM
Waning Gibbous, 57% visible
METAR ENRO 260750Z 16006KT 130V200 7000 SHRA BKN029 15/13 Q1012
Pressure 29.89 in
Visibility 4.3 miles
Clouds Mostly Cloudy 2900 ft
Dew Point 55 °F
Humidity 97%
Rainfall 0.09 in
Snow Depth Not available.
4:22 AM 10:09 PM
Waning Gibbous, 57% visible
METAR ENRO 260750Z 16006KT 130V200 7000 SHRA BKN029 15/13 Q1012

10-Day Weather Forecast

×

Almanac

Astronomy

Jul. 26, 2016 Rise Set
Actual Time
Civil Twilight
Nautical Twilight
Astronomical Twilight
Moon
Length of Visible Light
Length of Day
Tomorrow will be .
, % of the Moon is Illuminated

Today's Extremes

Country Highs Country Lows

Community

WunderPhotos

Upload Photos

1,927,556 photos uploaded!

WunderBlog® & News

Nearby

Air Quality

  Air Quality AQ Index Pollutant
Not available.

Snow Depth

Station Depth Elevation

Earthquake Activity

City Distance Mag. Time & Date
Minimum magnitude displayed is 2.5.

Coastal Water Temperatures

Place Temperature

Stations

Nearby Weather Stations

Station Location Temp. Windchill Dew Point Humidity Wind Precip. Elev Updated Type